createdAt,value
2023-04-26T00:02:18.946Z,41.34
2023-04-26T00:04:45.554Z,41.45
2023-04-26T00:07:12.206Z,41.19
2023-04-26T00:09:38.763Z,41.46
2023-04-26T00:12:05.357Z,41.32
2023-04-26T00:14:31.878Z,41.24
2023-04-26T00:16:58.405Z,41.30
2023-04-26T00:19:24.929Z,41.31
2023-04-26T00:21:51.497Z,41.54
2023-04-26T00:24:17.997Z,41.71
2023-04-26T00:26:44.502Z,41.15
2023-04-26T00:29:11.122Z,41.43
2023-04-26T00:31:37.760Z,41.41
2023-04-26T00:34:04.312Z,41.56
2023-04-26T00:36:30.776Z,41.69
2023-04-26T00:39:00.127Z,41.54
2023-04-26T00:41:26.563Z,41.18
2023-04-26T00:43:53.103Z,41.24
2023-04-26T00:46:19.826Z,41.36
2023-04-26T00:48:46.487Z,41.23
2023-04-26T00:51:12.991Z,41.14
2023-04-26T00:53:39.445Z,41.06
2023-04-26T00:56:05.987Z,41.26
2023-04-26T00:58:32.610Z,41.31
2023-04-26T01:00:59.040Z,41.70
2023-04-26T01:03:27.196Z,41.60
2023-04-26T01:05:53.837Z,41.51
2023-04-26T01:08:20.321Z,41.53
2023-04-26T01:10:46.790Z,41.69
2023-04-26T01:13:13.220Z,41.51
2023-04-26T01:15:39.637Z,41.43
2023-04-26T01:18:06.161Z,41.26
2023-04-26T01:20:32.633Z,41.48
2023-04-26T01:22:59.038Z,41.33
2023-04-26T01:25:25.532Z,41.26
2023-04-26T01:27:52.033Z,41.39
2023-04-26T01:30:18.572Z,41.33
2023-04-26T01:32:45.161Z,41.38
2023-04-26T01:35:11.730Z,41.01
2023-04-26T01:37:38.200Z,41.14
2023-04-26T01:40:04.810Z,41.25
2023-04-26T01:42:31.327Z,41.02
2023-04-26T01:44:57.871Z,40.96
2023-04-26T01:47:24.442Z,40.97
2023-04-26T01:49:51.044Z,41.27
2023-04-26T01:52:17.463Z,41.18
2023-04-26T01:54:45.979Z,40.92
2023-04-26T01:57:12.449Z,41.18
2023-04-26T01:59:38.858Z,40.76
2023-04-26T02:02:05.318Z,40.97
2023-04-26T02:04:31.948Z,40.96
2023-04-26T02:06:58.486Z,40.98
2023-04-26T02:09:24.899Z,40.90
2023-04-26T02:11:51.381Z,40.82
2023-04-26T02:14:17.806Z,41.25
2023-04-26T02:16:44.382Z,41.02
2023-04-26T02:19:10.962Z,40.92
2023-04-26T02:21:37.504Z,41.15
2023-04-26T02:24:03.983Z,41.11
2023-04-26T02:26:30.415Z,41.17
2023-04-26T02:28:56.846Z,41.00
2023-04-26T02:31:23.417Z,41.03
2023-04-26T02:33:49.942Z,41.08
2023-04-26T02:36:16.488Z,40.77
2023-04-26T02:38:42.989Z,41.01
2023-04-26T02:41:09.496Z,41.04
2023-04-26T02:43:36.064Z,40.84
2023-04-26T02:46:02.555Z,41.18
2023-04-26T02:48:29.113Z,41.08
2023-04-26T02:50:55.725Z,41.41
2023-04-26T02:53:22.212Z,41.51
2023-04-26T02:55:48.712Z,41.25
2023-04-26T02:58:15.274Z,41.22
2023-04-26T03:00:41.806Z,41.40
2023-04-26T03:03:08.559Z,41.27
2023-04-26T03:05:35.161Z,41.26
2023-04-26T03:08:01.766Z,41.22
2023-04-26T03:10:28.378Z,41.26
2023-04-26T03:12:54.961Z,41.31
2023-04-26T03:15:21.477Z,41.08
2023-04-26T03:17:48.070Z,41.35
2023-04-26T03:20:14.699Z,40.94
2023-04-26T03:22:41.221Z,40.77
2023-04-26T03:25:07.708Z,40.84
2023-04-26T03:27:34.229Z,40.90
2023-04-26T03:30:00.710Z,40.87
2023-04-26T03:32:27.296Z,40.78
2023-04-26T03:34:53.832Z,41.01
2023-04-26T03:37:20.391Z,40.93
2023-04-26T03:39:46.816Z,41.02
2023-04-26T03:42:13.250Z,40.94
2023-04-26T03:44:39.797Z,40.68
2023-04-26T03:47:06.271Z,40.93
2023-04-26T03:49:32.758Z,40.82
2023-04-26T03:51:59.353Z,40.82
2023-04-26T03:54:25.852Z,40.73
2023-04-26T03:56:52.411Z,40.72
2023-04-26T03:59:18.953Z,40.60
2023-04-26T04:01:45.375Z,40.83
2023-04-26T04:04:12.254Z,40.70
2023-04-26T04:06:38.923Z,40.77
2023-04-26T04:09:05.402Z,41.07
2023-04-26T04:11:31.956Z,40.89
2023-04-26T04:13:58.402Z,40.91
2023-04-26T04:16:25.075Z,40.60
2023-04-26T04:18:51.897Z,40.90
2023-04-26T04:21:18.540Z,40.72
2023-04-26T04:23:45.027Z,40.92
2023-04-26T04:26:11.569Z,40.22
2023-04-26T04:28:38.012Z,40.42
2023-04-26T04:31:04.599Z,40.86
2023-04-26T04:33:31.170Z,40.75
2023-04-26T04:35:57.665Z,40.76
2023-04-26T04:38:24.139Z,40.45
2023-04-26T04:40:50.587Z,40.63
2023-04-26T04:43:17.099Z,40.94
2023-04-26T04:45:43.661Z,40.48
2023-04-26T04:48:10.190Z,40.85
2023-04-26T04:50:36.708Z,40.48
2023-04-26T04:53:03.144Z,40.82
2023-04-26T04:55:29.656Z,40.88
2023-04-26T04:57:56.141Z,41.03
2023-04-26T05:00:22.559Z,40.58
2023-04-26T05:02:49.284Z,40.95
2023-04-26T05:05:15.935Z,41.08
2023-04-26T05:07:42.473Z,40.50
2023-04-26T05:10:08.997Z,40.67
2023-04-26T05:12:35.485Z,41.74
2023-04-26T05:15:01.993Z,42.71
2023-04-26T05:17:28.511Z,42.41
2023-04-26T05:19:54.983Z,42.86
2023-04-26T05:22:21.552Z,42.82
2023-04-26T05:24:48.077Z,43.79
2023-04-26T05:27:14.627Z,43.66
2023-04-26T05:29:41.092Z,43.61
2023-04-26T05:32:07.673Z,43.10
2023-04-26T05:34:34.157Z,43.57
2023-04-26T05:37:00.644Z,44.18
2023-04-26T05:39:27.124Z,43.94
2023-04-26T05:41:53.567Z,43.70
2023-04-26T05:44:20.091Z,43.57
2023-04-26T05:46:46.633Z,43.55
2023-04-26T05:49:13.250Z,43.51
2023-04-26T05:51:39.765Z,43.86
2023-04-26T05:54:06.268Z,44.41
2023-04-26T05:56:32.813Z,43.94
2023-04-26T05:58:59.306Z,43.47
2023-04-26T06:01:25.864Z,44.55
2023-04-26T06:03:53.834Z,45.50
2023-04-26T06:06:22.694Z,45.37
2023-04-26T06:08:49.288Z,45.75
2023-04-26T06:11:15.721Z,45.66
2023-04-26T06:13:42.172Z,46.44
2023-04-26T06:16:08.724Z,45.89
2023-04-26T06:18:35.235Z,46.35
2023-04-26T06:21:01.772Z,46.50
2023-04-26T06:23:28.209Z,45.92
2023-04-26T06:25:54.694Z,46.22
2023-04-26T06:28:21.212Z,46.08
2023-04-26T06:30:47.970Z,45.81
2023-04-26T06:33:14.421Z,45.50
2023-04-26T06:35:40.866Z,45.82
2023-04-26T06:38:07.297Z,45.55
2023-04-26T06:40:33.704Z,45.68
2023-04-26T06:43:00.230Z,46.07
2023-04-26T06:45:26.702Z,45.91
2023-04-26T06:47:53.302Z,45.95
2023-04-26T06:50:19.789Z,45.66
2023-04-26T06:52:46.255Z,45.40
2023-04-26T06:55:12.701Z,45.48
2023-04-26T06:57:39.241Z,45.49
2023-04-26T07:00:05.778Z,45.51
2023-04-26T07:02:32.453Z,45.57
2023-04-26T07:04:59.231Z,45.40
2023-04-26T07:07:25.788Z,45.42
2023-04-26T07:09:52.305Z,45.33
2023-04-26T07:12:18.776Z,44.98
2023-04-26T07:14:45.239Z,45.17
2023-04-26T07:17:11.670Z,45.13
2023-04-26T07:19:38.180Z,45.24
2023-04-26T07:22:04.742Z,45.35
2023-04-26T07:24:31.161Z,45.50
2023-04-26T07:26:57.596Z,45.00
2023-04-26T07:29:24.041Z,44.70
2023-04-26T07:31:50.494Z,44.00
2023-04-26T07:34:17.059Z,44.40
2023-04-26T07:36:43.573Z,44.09
2023-04-26T07:39:10.057Z,43.43
2023-04-26T07:41:37.824Z,43.19
2023-04-26T07:44:04.346Z,43.71
2023-04-26T07:46:30.871Z,43.19
2023-04-26T07:48:57.412Z,43.31
2023-04-26T07:51:23.952Z,43.66
2023-04-26T07:53:50.888Z,43.49
2023-04-26T07:56:17.615Z,44.04
2023-04-26T07:58:44.220Z,43.23
2023-04-26T08:01:10.793Z,43.25
2023-04-26T08:03:37.440Z,44.06
2023-04-26T08:06:04.299Z,43.78
2023-04-26T08:08:30.848Z,43.28
2023-04-26T08:10:57.384Z,43.61
2023-04-26T08:13:24.472Z,43.58
2023-04-26T08:15:52.183Z,43.66
2023-04-26T08:18:18.681Z,43.07
2023-04-26T08:20:45.195Z,43.28
2023-04-26T08:23:13.455Z,43.29
2023-04-26T08:25:39.882Z,43.17
2023-04-26T08:28:06.390Z,43.58
2023-04-26T08:30:32.929Z,43.95
2023-04-26T08:32:59.511Z,43.52
2023-04-26T08:35:25.995Z,43.93
2023-04-26T08:37:52.520Z,43.61
2023-04-26T08:40:18.989Z,43.44
2023-04-26T08:42:45.485Z,42.98
2023-04-26T08:45:11.926Z,42.88
2023-04-26T08:47:38.473Z,43.01
2023-04-26T08:50:04.987Z,42.52
2023-04-26T08:52:31.569Z,43.41
2023-04-26T08:54:58.124Z,42.69
2023-04-26T08:57:24.635Z,43.10
2023-04-26T08:59:51.127Z,42.89
2023-04-26T09:02:17.690Z,43.17
2023-04-26T09:04:44.354Z,42.55
2023-04-26T09:07:10.920Z,42.28
2023-04-26T09:09:37.427Z,42.68
2023-04-26T09:12:03.982Z,42.60
2023-04-26T09:14:30.454Z,42.12
2023-04-26T09:16:56.913Z,42.56
2023-04-26T09:19:23.436Z,42.19
2023-04-26T09:21:49.912Z,42.29
2023-04-26T09:24:16.361Z,42.30
2023-04-26T09:26:42.823Z,42.70
2023-04-26T09:29:09.301Z,42.34
2023-04-26T09:31:35.915Z,42.37
2023-04-26T09:34:02.446Z,42.41
2023-04-26T09:36:28.918Z,42.48
2023-04-26T09:38:55.419Z,42.79
2023-04-26T09:41:21.957Z,42.36
2023-04-26T09:43:48.480Z,42.20
2023-04-26T09:46:14.979Z,42.09
2023-04-26T09:48:41.433Z,42.15
2023-04-26T09:51:08.068Z,42.02
2023-04-26T09:53:34.680Z,42.09
2023-04-26T09:56:01.193Z,42.31
2023-04-26T09:58:27.754Z,43.01
2023-04-26T10:00:54.368Z,42.80
2023-04-26T10:03:21.101Z,42.69
2023-04-26T10:05:47.909Z,42.88
2023-04-26T10:08:14.480Z,43.01
2023-04-26T10:10:40.989Z,42.85
2023-04-26T10:13:07.541Z,42.82
2023-04-26T10:15:34.039Z,42.72
2023-04-26T10:18:00.488Z,42.80
2023-04-26T10:20:27.047Z,42.93
2023-04-26T10:22:53.581Z,42.60
2023-04-26T10:25:20.039Z,42.42
2023-04-26T10:27:46.555Z,42.19
2023-04-26T10:30:12.993Z,42.26
2023-04-26T10:32:39.495Z,42.21
2023-04-26T10:35:06.057Z,41.90
2023-04-26T10:37:32.525Z,42.56
2023-04-26T10:39:58.970Z,43.10
2023-04-26T10:42:26.108Z,43.28
2023-04-26T10:44:53.165Z,43.47
2023-04-26T10:47:19.701Z,43.56
2023-04-26T10:49:46.201Z,42.93
2023-04-26T10:52:13.141Z,42.71
2023-04-26T10:54:39.684Z,42.65
2023-04-26T10:57:06.132Z,42.60
2023-04-26T10:59:43.531Z,42.23
2023-04-26T11:02:13.967Z,42.03
2023-04-26T11:04:40.533Z,41.74
2023-04-26T11:07:07.033Z,40.33
2023-04-26T11:09:33.577Z,38.30
2023-04-26T11:12:00.104Z,35.27
2023-04-26T11:14:26.581Z,37.74
2023-04-26T11:16:54.620Z,38.63
2023-04-26T11:19:21.168Z,37.71
2023-04-26T11:21:47.687Z,34.03
2023-04-26T11:24:14.250Z,34.97
2023-04-26T11:26:40.858Z,35.13
2023-04-26T11:29:07.354Z,34.84
2023-04-26T11:31:33.992Z,32.95
2023-04-26T11:34:00.562Z,34.34
2023-04-26T11:36:27.062Z,33.96
2023-04-26T11:38:53.756Z,34.56
2023-04-26T11:41:20.330Z,34.54
2023-04-26T11:43:46.929Z,34.30
2023-04-26T11:46:13.591Z,33.62
2023-04-26T11:48:40.215Z,34.43
2023-04-26T11:51:06.745Z,33.32
2023-04-26T11:53:33.331Z,33.49
2023-04-26T11:55:59.822Z,32.72
2023-04-26T11:58:26.283Z,32.38
2023-04-26T12:00:52.816Z,32.57
2023-04-26T12:03:19.518Z,32.49
2023-04-26T12:05:46.154Z,32.57
2023-04-26T12:08:12.704Z,32.46
2023-04-26T12:10:39.310Z,32.88
2023-04-26T12:13:05.914Z,32.13
2023-04-26T12:15:32.424Z,32.23
2023-04-26T12:17:59.057Z,31.33
2023-04-26T12:20:25.664Z,29.58
2023-04-26T12:22:52.145Z,29.25
2023-04-26T12:25:18.570Z,28.62
2023-04-26T12:27:45.051Z,29.07
2023-04-26T12:30:11.628Z,29.93
2023-04-26T12:32:38.225Z,30.00
2023-04-26T12:35:04.781Z,30.42
2023-04-26T12:37:31.205Z,30.22
2023-04-26T12:39:57.712Z,30.52
2023-04-26T12:42:24.358Z,30.58
2023-04-26T12:44:50.784Z,31.11
2023-04-26T12:47:17.352Z,30.92
2023-04-26T12:49:43.943Z,30.90
2023-04-26T12:52:10.420Z,29.89
2023-04-26T12:54:37.021Z,30.89
2023-04-26T12:57:03.558Z,30.69
2023-04-26T12:59:30.048Z,30.20
2023-04-26T13:01:56.729Z,30.51
2023-04-26T13:04:23.873Z,30.53
2023-04-26T13:06:50.464Z,30.41
2023-04-26T13:09:16.891Z,31.16
2023-04-26T13:11:43.397Z,31.06
2023-04-26T13:14:09.886Z,31.09
2023-04-26T13:16:36.512Z,31.02
2023-04-26T13:19:03.228Z,30.59
2023-04-26T13:21:31.539Z,31.03
2023-04-26T13:23:57.978Z,31.19
2023-04-26T13:26:25.823Z,31.29
2023-04-26T13:28:54.077Z,31.57
2023-04-26T13:31:20.631Z,31.03
2023-04-26T13:33:47.156Z,31.60
2023-04-26T13:36:13.702Z,31.21
2023-04-26T13:38:40.226Z,30.86
2023-04-26T13:41:06.757Z,31.26
2023-04-26T13:43:33.234Z,30.88
2023-04-26T13:45:59.715Z,31.46
2023-04-26T13:48:26.262Z,31.60
2023-04-26T13:50:52.771Z,31.21
2023-04-26T13:53:19.273Z,31.54
2023-04-26T13:55:45.684Z,31.43
2023-04-26T13:58:12.170Z,31.91
2023-04-26T14:00:38.817Z,31.82
2023-04-26T14:03:05.365Z,32.01
2023-04-26T14:05:31.932Z,31.72
2023-04-26T14:07:58.372Z,32.12
2023-04-26T14:10:24.863Z,32.40
2023-04-26T14:12:51.283Z,32.08
2023-04-26T14:15:17.750Z,32.11
2023-04-26T14:17:44.291Z,32.40
2023-04-26T14:20:10.807Z,32.08
2023-04-26T14:22:37.305Z,32.45
2023-04-26T14:25:03.771Z,31.97
2023-04-26T14:27:30.256Z,32.34
2023-04-26T14:29:56.731Z,32.51
2023-04-26T14:32:23.262Z,32.58
2023-04-26T14:34:49.781Z,32.79
2023-04-26T14:37:16.236Z,32.64
2023-04-26T14:39:42.692Z,32.64
2023-04-26T14:42:09.160Z,32.80
2023-04-26T14:44:35.637Z,33.02
2023-04-26T14:47:02.135Z,32.95
2023-04-26T14:49:28.597Z,33.37
2023-04-26T14:51:55.110Z,33.29
2023-04-26T14:54:21.629Z,33.46
2023-04-26T14:56:48.072Z,33.51
2023-04-26T14:59:14.558Z,33.79
2023-04-26T15:01:41.075Z,33.76
2023-04-26T15:04:07.919Z,34.09
2023-04-26T15:06:34.501Z,33.98
2023-04-26T15:09:02.110Z,33.88
2023-04-26T15:11:28.536Z,33.83
2023-04-26T15:13:54.939Z,33.68
2023-04-26T15:16:21.612Z,33.87
2023-04-26T15:18:48.130Z,34.07
2023-04-26T15:21:14.540Z,33.95
2023-04-26T15:23:40.996Z,33.97
2023-04-26T15:26:07.473Z,33.87
2023-04-26T15:28:33.993Z,33.48
2023-04-26T15:31:00.612Z,33.66
2023-04-26T15:33:27.145Z,33.39
2023-04-26T15:35:53.608Z,33.72
2023-04-26T15:38:20.141Z,34.42
2023-04-26T15:40:46.679Z,34.07
2023-04-26T15:43:13.260Z,33.74
2023-04-26T15:45:42.579Z,34.08
2023-04-26T15:48:09.119Z,34.08
2023-04-26T15:50:35.678Z,34.17
2023-04-26T15:53:02.205Z,34.31
2023-04-26T15:55:28.634Z,34.44
2023-04-26T15:57:55.117Z,33.97
2023-04-26T16:00:21.609Z,34.33
2023-04-26T16:02:48.296Z,34.72
2023-04-26T16:05:15.089Z,34.44
2023-04-26T16:07:41.831Z,34.63
2023-04-26T16:10:08.415Z,34.78
2023-04-26T16:12:34.904Z,34.66
2023-04-26T16:15:01.350Z,33.90
2023-04-26T16:17:27.855Z,33.83
2023-04-26T16:19:54.416Z,34.40
2023-04-26T16:22:21.039Z,34.51
2023-04-26T16:24:47.542Z,34.23
2023-04-26T16:27:14.033Z,34.35
2023-04-26T16:29:40.602Z,34.00
2023-04-26T16:32:07.097Z,33.93
2023-04-26T16:34:33.533Z,33.58
2023-04-26T16:36:59.988Z,33.59
2023-04-26T16:39:26.536Z,33.49
2023-04-26T16:41:53.034Z,33.53
2023-04-26T16:44:19.552Z,33.59
2023-04-26T16:46:46.122Z,33.36
2023-04-26T16:49:12.572Z,33.41
2023-04-26T16:51:39.091Z,33.10
2023-04-26T16:54:05.677Z,33.35
2023-04-26T16:56:32.177Z,33.47
2023-04-26T16:59:00.938Z,33.68
2023-04-26T17:01:27.563Z,33.79
2023-04-26T17:03:54.350Z,33.90
2023-04-26T17:06:21.057Z,33.52
2023-04-26T17:08:47.586Z,33.63
2023-04-26T17:11:14.021Z,33.13
2023-04-26T17:13:40.576Z,33.35
2023-04-26T17:16:07.092Z,33.26
2023-04-26T17:18:33.535Z,33.52
2023-04-26T17:20:59.999Z,33.49
2023-04-26T17:23:26.507Z,33.46
2023-04-26T17:25:55.114Z,33.81
2023-04-26T17:28:22.002Z,34.16
2023-04-26T17:30:48.524Z,33.90
2023-04-26T17:33:14.994Z,34.37
2023-04-26T17:35:41.453Z,33.75
2023-04-26T17:38:07.887Z,34.40
2023-04-26T17:40:34.378Z,34.06
2023-04-26T17:43:00.894Z,34.18
2023-04-26T17:45:27.427Z,34.09
2023-04-26T17:47:53.980Z,33.99
2023-04-26T17:50:20.505Z,34.13
2023-04-26T17:52:47.109Z,34.00
2023-04-26T17:55:13.630Z,34.45
2023-04-26T17:57:40.125Z,34.24
2023-04-26T18:00:06.592Z,34.42
2023-04-26T18:02:33.214Z,34.34
2023-04-26T18:04:59.988Z,34.09
2023-04-26T18:07:26.475Z,34.52
2023-04-26T18:09:52.991Z,34.75
2023-04-26T18:12:19.501Z,34.69
2023-04-26T18:14:45.967Z,34.58
2023-04-26T18:17:12.531Z,34.41
2023-04-26T18:19:38.970Z,34.61
2023-04-26T18:22:05.480Z,34.87
2023-04-26T18:24:32.028Z,34.70
2023-04-26T18:26:58.497Z,34.68
2023-04-26T18:29:24.918Z,34.68
2023-04-26T18:31:51.365Z,34.98
2023-04-26T18:34:17.873Z,34.97
2023-04-26T18:36:44.319Z,34.18
2023-04-26T18:39:10.833Z,34.28
2023-04-26T18:41:37.383Z,34.29
2023-04-26T18:44:03.851Z,34.19
2023-04-26T18:46:30.404Z,33.71
2023-04-26T18:48:56.965Z,33.17
2023-04-26T18:51:23.487Z,33.10
2023-04-26T18:53:50.396Z,33.23
2023-04-26T18:56:17.269Z,33.13
2023-04-26T18:58:43.997Z,32.56
2023-04-26T19:01:11.128Z,33.34
2023-04-26T19:03:37.849Z,33.55
2023-04-26T19:06:04.493Z,33.79
2023-04-26T19:08:30.939Z,33.37
2023-04-26T19:10:57.452Z,34.06
2023-04-26T19:13:23.928Z,34.35
2023-04-26T19:15:50.494Z,34.46
2023-04-26T19:18:17.128Z,35.22
2023-04-26T19:20:43.645Z,34.67
2023-04-26T19:23:10.207Z,34.95
2023-04-26T19:25:36.744Z,34.97
2023-04-26T19:28:03.266Z,35.32
2023-04-26T19:30:29.770Z,35.45
2023-04-26T19:32:56.250Z,35.44
2023-04-26T19:35:22.809Z,35.34
2023-04-26T19:37:49.376Z,36.00
2023-04-26T19:40:16.104Z,36.45
2023-04-26T19:42:42.680Z,36.12
2023-04-26T19:45:09.197Z,36.04
2023-04-26T19:47:35.775Z,36.11
2023-04-26T19:50:02.326Z,36.09
2023-04-26T19:52:28.885Z,36.50
2023-04-26T19:54:55.410Z,36.97
2023-04-26T19:57:21.890Z,36.40
2023-04-26T19:59:48.337Z,37.43
2023-04-26T20:02:14.946Z,37.05
2023-04-26T20:04:41.407Z,37.21
2023-04-26T20:07:08.562Z,37.98
2023-04-26T20:09:35.249Z,37.22
2023-04-26T20:12:01.733Z,37.15
2023-04-26T20:14:28.253Z,37.18
2023-04-26T20:16:54.874Z,37.20
2023-04-26T20:19:21.325Z,37.28
2023-04-26T20:21:47.798Z,36.75
2023-04-26T20:24:14.183Z,36.94
2023-04-26T20:26:40.637Z,36.97
2023-04-26T20:29:07.224Z,37.25
2023-04-26T20:31:33.826Z,36.92
2023-04-26T20:34:00.928Z,37.17
2023-04-26T20:36:27.568Z,37.23
2023-04-26T20:38:54.026Z,37.13
2023-04-26T20:41:20.526Z,37.40
2023-04-26T20:43:47.032Z,37.21
2023-04-26T20:46:13.608Z,37.04
2023-04-26T20:48:40.172Z,37.33
2023-04-26T20:51:06.681Z,37.95
2023-04-26T20:53:33.156Z,37.50
2023-04-26T20:55:59.600Z,37.62
2023-04-26T20:58:26.120Z,37.73
2023-04-26T21:00:52.648Z,37.26
2023-04-26T21:03:19.349Z,37.28
2023-04-26T21:05:46.069Z,37.16
2023-04-26T21:08:12.539Z,37.20
2023-04-26T21:10:39.044Z,36.97
2023-04-26T21:13:05.589Z,37.25
2023-04-26T21:15:32.062Z,37.39
2023-04-26T21:17:58.601Z,37.38
2023-04-26T21:20:25.154Z,37.31
2023-04-26T21:22:51.601Z,37.28
2023-04-26T21:25:18.124Z,38.14
2023-04-26T21:27:44.699Z,37.59
2023-04-26T21:30:11.278Z,37.50
2023-04-26T21:32:37.824Z,37.69
2023-04-26T21:35:04.297Z,37.41
2023-04-26T21:37:30.750Z,37.68
2023-04-26T21:39:57.312Z,37.62
2023-04-26T21:42:23.770Z,37.70
2023-04-26T21:44:50.215Z,37.40
2023-04-26T21:47:16.686Z,37.56
2023-04-26T21:49:43.196Z,37.57
2023-04-26T21:52:09.705Z,37.33
2023-04-26T21:54:36.209Z,37.48
2023-04-26T21:57:02.682Z,37.76
2023-04-26T21:59:29.109Z,37.74
2023-04-26T22:01:55.796Z,38.06
2023-04-26T22:04:22.397Z,37.75
2023-04-26T22:06:49.095Z,37.88
2023-04-26T22:09:15.618Z,37.85
2023-04-26T22:11:42.152Z,38.14
2023-04-26T22:14:08.681Z,37.83
2023-04-26T22:16:35.194Z,37.60
2023-04-26T22:19:01.671Z,37.57
2023-04-26T22:21:28.158Z,37.83
2023-04-26T22:23:54.634Z,38.11
2023-04-26T22:26:21.173Z,37.39
2023-04-26T22:28:47.632Z,37.92
2023-04-26T22:31:14.105Z,37.59
2023-04-26T22:33:40.586Z,37.80
2023-04-26T22:36:07.087Z,37.55
2023-04-26T22:38:33.571Z,37.88
2023-04-26T22:41:00.003Z,37.67
2023-04-26T22:43:26.489Z,38.33
2023-04-26T22:45:52.978Z,38.24
2023-04-26T22:48:19.465Z,38.24
2023-04-26T22:50:47.056Z,38.50
2023-04-26T22:53:13.552Z,38.49
2023-04-26T22:55:40.028Z,38.66
2023-04-26T22:58:06.547Z,38.54
2023-04-26T23:00:33.088Z,38.39
2023-04-26T23:02:59.646Z,38.57
2023-04-26T23:05:26.184Z,38.32
2023-04-26T23:07:52.616Z,38.44
2023-04-26T23:10:19.179Z,38.81
2023-04-26T23:12:48.552Z,38.82
2023-04-26T23:15:15.007Z,38.68
2023-04-26T23:17:41.535Z,38.38
2023-04-26T23:20:08.091Z,38.61
2023-04-26T23:22:34.603Z,38.62
2023-04-26T23:25:01.114Z,38.65
2023-04-26T23:27:27.584Z,38.69
2023-04-26T23:29:54.024Z,39.09
2023-04-26T23:32:20.467Z,38.83
2023-04-26T23:34:46.957Z,38.76
2023-04-26T23:37:16.262Z,38.87
2023-04-26T23:39:42.824Z,38.87
2023-04-26T23:42:09.339Z,39.23
2023-04-26T23:44:35.874Z,39.17
2023-04-26T23:47:02.354Z,38.99
2023-04-26T23:49:30.854Z,39.10
2023-04-26T23:51:57.387Z,39.29
2023-04-26T23:54:24.041Z,39.17
2023-04-26T23:56:50.458Z,39.30
2023-04-26T23:59:16.881Z,38.86
